createdAt,value
2023-01-13T00:00:27.993Z,2.20
2023-01-13T00:04:58.685Z,2.00
2023-01-13T00:09:06.892Z,2.30
2023-01-13T00:13:14.513Z,1.90
2023-01-13T00:17:23.683Z,1.50
2023-01-13T00:21:31.489Z,2.10
2023-01-13T00:25:39.957Z,1.80
2023-01-13T00:29:47.438Z,1.80
2023-01-13T00:33:57.270Z,1.90
2023-01-13T00:38:04.954Z,1.90
2023-01-13T00:42:29.866Z,2.10
2023-01-13T00:46:37.872Z,1.80
2023-01-13T00:50:46.137Z,1.90
2023-01-13T00:54:54.527Z,1.70
2023-01-13T00:59:02.367Z,1.90
2023-01-13T01:03:13.189Z,1.90
2023-01-13T01:07:21.303Z,2.00
2023-01-13T01:11:31.936Z,1.90
2023-01-13T01:15:44.009Z,2.00
2023-01-13T01:19:51.738Z,2.00
2023-01-13T01:24:02.574Z,2.20
2023-01-13T01:28:13.199Z,1.80
2023-01-13T01:32:21.087Z,2.00
2023-01-13T01:36:30.523Z,2.10
2023-01-13T01:40:38.369Z,2.10
2023-01-13T01:45:00.631Z,2.50
2023-01-13T01:49:14.554Z,2.10
2023-01-13T01:53:24.143Z,2.20
2023-01-13T01:57:35.666Z,2.00
2023-01-13T02:01:46.645Z,2.20
2023-01-13T02:05:54.281Z,2.10
2023-01-13T02:10:05.430Z,2.10
2023-01-13T02:14:14.273Z,2.00
2023-01-13T02:18:38.901Z,2.50
2023-01-13T02:23:02.868Z,2.20
2023-01-13T02:27:33.263Z,2.20
2023-01-13T02:31:44.232Z,1.80
2023-01-13T02:35:55.625Z,1.60
2023-01-13T02:40:07.468Z,1.80
2023-01-13T02:44:21.308Z,1.80
2023-01-13T02:48:30.390Z,2.00
2023-01-13T02:52:41.599Z,2.30
2023-01-13T02:56:51.367Z,2.40
2023-01-13T03:01:00.115Z,2.40
2023-01-13T03:05:08.924Z,1.90
2023-01-13T03:09:20.849Z,2.30
2023-01-13T03:13:54.490Z,2.60
2023-01-13T03:18:08.539Z,2.10
2023-01-13T03:22:22.376Z,1.80
2023-01-13T03:26:34.897Z,2.00
2023-01-13T03:30:49.661Z,2.00
2023-01-13T03:35:01.104Z,2.10
2023-01-13T03:39:13.105Z,2.00
2023-01-13T03:43:41.593Z,1.70
2023-01-13T03:47:52.546Z,1.60
2023-01-13T03:52:03.316Z,1.70
2023-01-13T03:56:17.222Z,1.80
2023-01-13T04:00:27.497Z,1.70
2023-01-13T04:04:36.622Z,1.60
2023-01-13T04:08:49.751Z,1.80
2023-01-13T04:13:05.576Z,1.90
2023-01-13T04:17:13.387Z,1.50
2023-01-13T04:21:21.440Z,1.60
2023-01-13T04:25:29.874Z,1.30
2023-01-13T04:29:39.090Z,1.40
2023-01-13T04:33:47.070Z,1.30
2023-01-13T04:37:55.252Z,1.60
2023-01-13T04:42:03.217Z,1.20
2023-01-13T04:46:10.909Z,1.60
2023-01-13T04:50:20.663Z,1.50
2023-01-13T04:54:28.467Z,1.40
2023-01-13T04:58:36.801Z,1.70
2023-01-13T05:02:44.129Z,1.50
2023-01-13T05:06:52.359Z,1.80
2023-01-13T05:11:24.066Z,1.70
2023-01-13T05:15:49.501Z,1.40
2023-01-13T05:19:57.486Z,1.50
2023-01-13T05:24:22.938Z,1.60
2023-01-13T05:28:34.733Z,1.90
2023-01-13T05:32:42.672Z,1.70
2023-01-13T05:36:50.677Z,1.90
2023-01-13T05:41:15.377Z,1.60
2023-01-13T05:45:23.427Z,1.60
2023-01-13T05:49:31.141Z,1.40
2023-01-13T05:53:40.664Z,1.90
2023-01-13T05:57:48.960Z,1.30
2023-01-13T06:01:57.082Z,1.40
2023-01-13T06:06:05.488Z,1.30
2023-01-13T06:10:14.702Z,1.60
2023-01-13T06:14:22.445Z,1.20
2023-01-13T06:18:30.918Z,1.30
2023-01-13T06:22:41.453Z,1.40
2023-01-13T06:26:49.737Z,1.50
2023-01-13T06:30:59.723Z,1.10
2023-01-13T06:35:10.875Z,1.50
2023-01-13T06:39:21.228Z,2.50
2023-01-13T06:43:29.446Z,2.90
2023-01-13T06:47:37.190Z,2.40
2023-01-13T06:51:45.044Z,2.40
2023-01-13T06:55:52.730Z,1.80
2023-01-13T07:00:01.592Z,2.00
2023-01-13T07:04:10.086Z,1.50
2023-01-13T07:08:17.893Z,1.60
2023-01-13T07:12:25.666Z,1.60
2023-01-13T07:16:36.833Z,1.60
2023-01-13T07:20:44.835Z,1.80
2023-01-13T07:24:52.449Z,1.40
2023-01-13T07:29:01.019Z,1.70
2023-01-13T07:33:08.840Z,1.50
2023-01-13T07:37:16.796Z,1.50
2023-01-13T07:41:42.174Z,1.40
2023-01-13T07:45:49.921Z,1.70
2023-01-13T07:49:58.133Z,1.50
2023-01-13T07:54:06.263Z,1.70
2023-01-13T07:58:13.845Z,1.70
2023-01-13T08:02:22.023Z,1.70
2023-01-13T08:06:30.815Z,1.50
2023-01-13T08:10:38.892Z,1.60
2023-01-13T08:14:46.130Z,1.70
2023-01-13T08:18:53.912Z,1.70
2023-01-13T08:23:02.516Z,2.00
2023-01-13T08:27:10.321Z,1.90
2023-01-13T08:31:20.355Z,1.90
2023-01-13T08:35:30.926Z,1.80
2023-01-13T08:39:40.095Z,1.60
2023-01-13T08:43:47.938Z,1.70
2023-01-13T08:47:55.796Z,2.00
2023-01-13T08:52:04.954Z,1.70
2023-01-13T08:56:13.845Z,1.70
2023-01-13T09:00:23.976Z,1.50
2023-01-13T09:04:33.706Z,1.70
2023-01-13T09:08:41.396Z,1.70
2023-01-13T09:13:11.566Z,1.50
2023-01-13T09:17:20.295Z,1.80
2023-01-13T09:21:28.257Z,1.90
2023-01-13T09:25:37.347Z,1.90
2023-01-13T09:29:46.042Z,1.70
2023-01-13T09:34:16.875Z,1.50
2023-01-13T09:38:25.267Z,1.60
2023-01-13T09:43:01.880Z,2.30
2023-01-13T09:47:21.463Z,2.60
2023-01-13T09:51:32.844Z,2.10
2023-01-13T09:55:40.980Z,2.40
2023-01-13T09:59:49.272Z,2.10
2023-01-13T10:03:56.900Z,2.60
2023-01-13T10:08:07.221Z,2.40
2023-01-13T10:12:36.578Z,1.70
2023-01-13T10:16:49.716Z,1.90
2023-01-13T10:21:04.104Z,2.00
2023-01-13T10:25:21.524Z,2.00
2023-01-13T10:29:31.385Z,2.10
2023-01-13T10:33:39.040Z,2.00
2023-01-13T10:37:59.429Z,1.80
2023-01-13T10:42:08.978Z,2.10
2023-01-13T10:46:19.413Z,1.80
2023-01-13T10:50:31.686Z,1.90
2023-01-13T10:54:39.697Z,2.20
2023-01-13T10:58:47.901Z,2.00
2023-01-13T11:03:13.127Z,1.80
2023-01-13T11:07:34.577Z,1.70
2023-01-13T11:11:43.583Z,2.00
2023-01-13T11:15:57.205Z,1.80
2023-01-13T11:20:14.361Z,2.00
2023-01-13T11:24:26.946Z,1.90
2023-01-13T11:28:41.529Z,2.10
2023-01-13T11:32:59.148Z,2.00
2023-01-13T11:37:16.002Z,2.10
2023-01-13T11:41:38.424Z,2.20
2023-01-13T11:45:50.968Z,2.00
2023-01-13T11:49:59.487Z,2.00
2023-01-13T11:54:36.567Z,2.00
2023-01-13T11:59:20.761Z,2.50
2023-01-13T12:03:32.686Z,2.10
2023-01-13T12:07:49.993Z,1.80
2023-01-13T12:12:21.199Z,1.90
2023-01-13T12:16:32.180Z,2.00
2023-01-13T12:20:45.807Z,2.10
2023-01-13T12:25:01.505Z,2.10
2023-01-13T12:29:15.519Z,2.00
2023-01-13T12:33:29.672Z,2.00
2023-01-13T12:37:42.925Z,2.50
2023-01-13T12:42:11.342Z,2.10
2023-01-13T12:46:36.623Z,2.20
2023-01-13T12:50:47.613Z,2.50
2023-01-13T12:55:21.860Z,2.30
2023-01-13T12:59:55.156Z,2.10
2023-01-13T13:04:14.520Z,2.10
2023-01-13T13:08:27.940Z,2.20
2023-01-13T13:13:17.521Z,2.50
2023-01-13T13:17:44.408Z,2.30
2023-01-13T13:22:22.461Z,2.20
2023-01-13T13:26:36.889Z,2.40
2023-01-13T13:30:50.072Z,2.10
2023-01-13T13:35:13.868Z,2.30
2023-01-13T13:39:41.685Z,2.50
2023-01-13T13:44:07.500Z,3.40
2023-01-13T13:48:30.781Z,3.30
2023-01-13T13:52:42.771Z,3.20
2023-01-13T13:56:51.307Z,3.20
2023-01-13T14:00:59.476Z,3.00
2023-01-13T14:05:20.677Z,3.30
2023-01-13T14:09:29.878Z,3.20
2023-01-13T14:13:37.763Z,3.30
2023-01-13T14:17:45.294Z,3.20
2023-01-13T14:21:53.230Z,3.30
2023-01-13T14:26:09.134Z,3.60
2023-01-13T14:30:20.865Z,6.90
2023-01-13T14:34:31.683Z,5.20
2023-01-13T14:38:44.403Z,3.30
2023-01-13T14:43:00.685Z,3.10
2023-01-13T14:47:21.435Z,3.00
2023-01-13T14:51:31.364Z,2.70
2023-01-13T14:55:41.682Z,3.30
2023-01-13T14:59:57.791Z,5.10
2023-01-13T15:04:23.783Z,4.90
2023-01-13T15:08:36.980Z,4.50
2023-01-13T15:12:46.617Z,5.50
2023-01-13T15:16:54.983Z,8.40
2023-01-13T15:21:03.003Z,7.20
2023-01-13T15:25:12.316Z,7.50
2023-01-13T15:29:22.896Z,5.90
2023-01-13T15:33:33.105Z,6.40
2023-01-13T15:37:41.149Z,10.10
2023-01-13T15:42:06.023Z,15.00
2023-01-13T15:46:34.185Z,12.60
2023-01-13T15:50:42.760Z,15.60
2023-01-13T15:54:50.587Z,29.40
2023-01-13T15:58:58.923Z,37.30
2023-01-13T16:03:07.083Z,42.20
2023-01-13T16:07:18.096Z,39.30
2023-01-13T16:11:25.799Z,20.60
2023-01-13T16:15:34.250Z,13.90
2023-01-13T16:19:42.920Z,10.60
2023-01-13T16:23:52.076Z,17.00
2023-01-13T16:28:00.084Z,33.20
2023-01-13T16:32:08.583Z,33.70
2023-01-13T16:36:19.476Z,27.90
2023-01-13T16:40:31.248Z,18.60
2023-01-13T16:44:39.438Z,21.30
2023-01-13T16:48:48.032Z,23.80
2023-01-13T16:52:56.114Z,23.00
2023-01-13T16:57:03.935Z,20.90
2023-01-13T17:01:14.850Z,19.30
2023-01-13T17:05:22.940Z,17.80
2023-01-13T17:09:31.425Z,17.70
2023-01-13T17:13:39.714Z,18.60
2023-01-13T17:17:52.380Z,22.10
2023-01-13T17:22:00.185Z,20.70
2023-01-13T17:26:08.225Z,24.60
2023-01-13T17:30:16.754Z,21.80
2023-01-13T17:34:24.740Z,20.60
2023-01-13T17:38:34.101Z,23.20
2023-01-13T17:42:42.453Z,23.20
2023-01-13T17:46:50.700Z,22.50
2023-01-13T17:50:58.353Z,22.30
2023-01-13T17:55:06.349Z,19.50
2023-01-13T17:59:16.471Z,18.00
2023-01-13T18:03:27.187Z,18.30
2023-01-13T18:07:40.621Z,17.60
2023-01-13T18:11:49.089Z,18.30
2023-01-13T18:16:07.143Z,20.00
2023-01-13T18:20:36.586Z,23.20
2023-01-13T18:25:02.185Z,23.40
2023-01-13T18:29:10.320Z,24.60
2023-01-13T18:33:17.785Z,23.10
2023-01-13T18:37:26.322Z,29.00
2023-01-13T18:41:51.453Z,30.40
2023-01-13T18:45:59.129Z,32.90
2023-01-13T18:50:08.814Z,38.00
2023-01-13T18:54:16.389Z,38.40
2023-01-13T18:58:24.279Z,35.10
2023-01-13T19:02:31.889Z,25.20
2023-01-13T19:06:42.416Z,19.70
2023-01-13T19:10:53.514Z,20.10
2023-01-13T19:15:02.460Z,19.70
2023-01-13T19:19:12.213Z,18.00
2023-01-13T19:23:19.799Z,19.20
2023-01-13T19:27:29.293Z,21.60
2023-01-13T19:31:37.627Z,20.60
2023-01-13T19:35:45.928Z,18.90
2023-01-13T19:39:53.822Z,16.80
2023-01-13T19:44:18.843Z,16.60
2023-01-13T19:48:26.607Z,15.90
2023-01-13T19:52:34.314Z,17.10
2023-01-13T19:56:42.910Z,18.00
2023-01-13T20:01:16.304Z,17.90
2023-01-13T20:05:26.384Z,18.10
2023-01-13T20:09:35.010Z,16.00
2023-01-13T20:13:43.006Z,14.70
2023-01-13T20:17:50.843Z,14.60
2023-01-13T20:21:58.509Z,15.10
2023-01-13T20:26:09.652Z,13.90
2023-01-13T20:30:17.039Z,12.80
2023-01-13T20:34:25.308Z,10.60
2023-01-13T20:38:37.543Z,9.50
2023-01-13T20:42:46.046Z,9.90
2023-01-13T20:46:56.024Z,9.50
2023-01-13T20:51:03.504Z,8.50
2023-01-13T20:55:12.831Z,8.70
2023-01-13T20:59:21.022Z,7.80
2023-01-13T21:03:28.735Z,7.50
2023-01-13T21:07:36.658Z,8.20
2023-01-13T21:12:01.917Z,8.10
2023-01-13T21:16:13.099Z,7.50
2023-01-13T21:20:21.750Z,7.20
2023-01-13T21:25:41.128Z,6.60
2023-01-13T21:31:19.494Z,8.20
